createdAt,value
2023-02-27T00:02:33.006Z,14.93
2023-02-27T00:05:27.002Z,14.70
2023-02-27T00:08:14.018Z,13.80
2023-02-27T00:10:53.991Z,14.32
2023-02-27T00:13:41.982Z,14.93
2023-02-27T00:16:22.039Z,14.15
2023-02-27T00:19:16.055Z,14.38
2023-02-27T00:22:02.993Z,14.68
2023-02-27T00:24:43.052Z,14.65
2023-02-27T00:27:37.055Z,14.52
2023-02-27T00:30:33.142Z,13.48
2023-02-27T00:33:26.995Z,14.60
2023-02-27T00:36:14.024Z,14.57
2023-02-27T00:38:47.117Z,15.27
2023-02-27T00:41:34.041Z,14.88
2023-02-27T00:44:07.105Z,15.23
2023-02-27T00:46:54.124Z,14.38
2023-02-27T00:49:34.012Z,16.17
2023-02-27T00:52:27.997Z,15.45
2023-02-27T00:55:23.170Z,14.57
2023-02-27T00:58:10.008Z,13.48
2023-02-27T01:00:43.277Z,14.48
2023-02-27T01:03:30.023Z,12.95
2023-02-27T01:06:03.164Z,13.73
2023-02-27T01:08:50.061Z,13.80
2023-02-27T01:11:23.301Z,13.95
2023-02-27T01:14:10.005Z,14.38
2023-02-27T01:16:43.199Z,15.60
2023-02-27T01:19:30.029Z,14.98
2023-02-27T01:22:03.215Z,13.70
2023-02-27T01:24:50.025Z,14.30
2023-02-27T01:27:23.382Z,14.57
2023-02-27T01:30:11.046Z,14.52
2023-02-27T01:32:44.240Z,14.30
2023-02-27T01:35:31.028Z,14.60
2023-02-27T01:38:11.044Z,13.80
2023-02-27T01:41:05.040Z,13.73
2023-02-27T01:44:23.048Z,13.70
2023-02-27T01:47:10.046Z,14.00
2023-02-27T01:49:43.215Z,14.15
2023-02-27T01:52:30.034Z,13.65
2023-02-27T01:55:04.166Z,14.55
2023-02-27T01:57:53.025Z,14.63
2023-02-27T02:00:27.139Z,13.75
2023-02-27T02:03:30.042Z,14.55
2023-02-27T02:06:13.031Z,15.30
2023-02-27T02:09:09.040Z,15.38
2023-02-27T02:12:03.023Z,15.13
2023-02-27T02:14:51.060Z,13.75
2023-02-27T02:18:03.163Z,13.75
2023-02-27T02:21:11.059Z,15.77
2023-02-27T02:23:44.145Z,15.30
2023-02-27T02:26:52.059Z,15.40
2023-02-27T02:29:47.091Z,15.65
2023-02-27T02:32:53.019Z,16.30
2023-02-27T02:35:39.049Z,14.20
2023-02-27T02:38:46.059Z,16.35
2023-02-27T02:41:53.032Z,15.98
2023-02-27T02:44:41.297Z,15.30
2023-02-27T02:47:43.039Z,16.58
2023-02-27T02:50:24.165Z,14.68
2023-02-27T02:53:19.120Z,15.50
2023-02-27T02:55:57.174Z,17.13
2023-02-27T02:59:05.073Z,15.88
2023-02-27T03:01:49.134Z,16.50
2023-02-27T03:04:53.034Z,16.27
2023-02-27T03:07:55.078Z,16.08
2023-02-27T03:10:43.040Z,14.68
2023-02-27T03:13:49.050Z,15.43
2023-02-27T03:16:58.048Z,16.13
2023-02-27T03:20:02.056Z,15.70
2023-02-27T03:22:53.037Z,15.65
2023-02-27T03:25:32.184Z,16.33
2023-02-27T03:28:26.050Z,14.50
2023-02-27T03:31:40.082Z,15.32
2023-02-27T03:34:42.057Z,16.27
2023-02-27T03:37:53.049Z,16.42
2023-02-27T03:40:42.177Z,17.60
2023-02-27T03:43:43.036Z,14.60
2023-02-27T03:46:27.093Z,15.35
2023-02-27T03:49:21.047Z,14.48
2023-02-27T03:52:08.065Z,17.02
2023-02-27T03:54:45.156Z,15.20
2023-02-27T03:57:32.065Z,16.60
2023-02-27T04:00:06.298Z,16.80
2023-02-27T04:02:57.129Z,13.98
2023-02-27T04:05:30.243Z,15.55
2023-02-27T04:08:30.147Z,15.23
2023-02-27T04:11:41.295Z,15.48
2023-02-27T04:14:47.247Z,15.18
2023-02-27T04:17:30.278Z,14.05
2023-02-27T04:20:42.111Z,14.48
2023-02-27T04:23:54.061Z,14.18
2023-02-27T04:27:10.098Z,15.00
2023-02-27T04:29:56.291Z,14.52
2023-02-27T04:32:58.072Z,15.30
2023-02-27T04:36:00.092Z,14.68
2023-02-27T04:38:58.080Z,13.23
2023-02-27T04:41:51.281Z,14.10
2023-02-27T04:44:27.252Z,14.77
2023-02-27T04:47:18.109Z,13.90
2023-02-27T04:50:01.279Z,14.35
2023-02-27T04:52:58.108Z,14.43
2023-02-27T04:55:47.082Z,13.07
2023-02-27T04:59:16.089Z,12.43
2023-02-27T05:02:19.249Z,11.80
2023-02-27T05:05:01.113Z,12.85
2023-02-27T05:08:30.086Z,13.68
2023-02-27T05:11:42.094Z,12.70
2023-02-27T05:15:21.071Z,10.20
2023-02-27T05:18:11.119Z,11.73
2023-02-27T05:21:15.288Z,12.65
2023-02-27T05:24:08.108Z,11.82
2023-02-27T05:27:14.085Z,12.10
2023-02-27T05:30:15.149Z,12.50
2023-02-27T05:33:28.089Z,11.77
2023-02-27T05:36:25.259Z,11.65
2023-02-27T05:39:16.082Z,12.07
2023-02-27T05:41:59.251Z,11.07
2023-02-27T05:44:52.096Z,12.55
2023-02-27T05:47:30.227Z,12.23
2023-02-27T05:50:22.113Z,12.20
2023-02-27T05:52:58.548Z,12.68
2023-02-27T05:55:50.114Z,13.80
2023-02-27T05:58:32.320Z,14.05
2023-02-27T06:01:19.105Z,12.85
2023-02-27T06:03:53.828Z,13.70
2023-02-27T06:06:43.093Z,12.52
2023-02-27T06:09:16.683Z,12.98
2023-02-27T06:12:03.164Z,13.35
2023-02-27T06:14:36.246Z,13.20
2023-02-27T06:17:26.254Z,12.85
2023-02-27T06:20:06.091Z,14.05
2023-02-27T06:23:00.147Z,13.68
2023-02-27T06:25:49.116Z,14.00
2023-02-27T06:28:22.254Z,13.45
2023-02-27T06:31:10.156Z,13.20
2023-02-27T06:33:43.263Z,13.50
2023-02-27T06:36:30.440Z,12.68
2023-02-27T06:39:11.180Z,12.75
2023-02-27T06:42:05.161Z,12.80
2023-02-27T06:44:59.090Z,12.15
2023-02-27T06:47:48.128Z,12.05
2023-02-27T06:50:21.259Z,12.20
2023-02-27T06:53:08.087Z,11.98
2023-02-27T06:55:42.153Z,13.48
2023-02-27T06:58:31.161Z,10.63
2023-02-27T07:01:14.162Z,12.30
2023-02-27T07:04:08.113Z,11.77
2023-02-27T07:07:35.227Z,10.70
2023-02-27T07:09:55.164Z,12.60
2023-02-27T07:12:49.161Z,11.85
2023-02-27T07:15:36.151Z,12.80
2023-02-27T07:18:09.260Z,12.35
2023-02-27T07:20:59.163Z,13.93
2023-02-27T07:23:32.729Z,12.68
2023-02-27T07:26:19.174Z,12.45
2023-02-27T07:28:52.221Z,14.13
2023-02-27T07:31:39.131Z,13.43
2023-02-27T07:34:13.110Z,13.25
2023-02-27T07:37:00.110Z,12.88
2023-02-27T07:39:33.341Z,14.40
2023-02-27T07:42:20.119Z,13.57
2023-02-27T07:44:53.270Z,14.82
2023-02-27T07:47:40.160Z,13.63
2023-02-27T07:50:14.256Z,14.20
2023-02-27T07:53:01.170Z,13.55
2023-02-27T07:55:34.337Z,13.93
2023-02-27T07:58:21.207Z,12.70
2023-02-27T08:01:01.170Z,13.13
2023-02-27T08:03:48.158Z,13.15
2023-02-27T08:06:21.897Z,14.10
2023-02-27T08:09:08.127Z,14.52
2023-02-27T08:11:49.245Z,14.63
2023-02-27T08:14:43.178Z,13.57
2023-02-27T08:17:30.135Z,14.00
2023-02-27T08:20:04.808Z,13.40
2023-02-27T08:22:51.174Z,13.43
2023-02-27T08:25:25.265Z,14.23
2023-02-27T08:28:12.202Z,10.93
2023-02-27T08:30:52.140Z,12.00
2023-02-27T08:33:49.496Z,13.32
2023-02-27T08:36:36.194Z,12.75
2023-02-27T08:39:09.373Z,13.43
2023-02-27T08:41:57.199Z,13.80
2023-02-27T08:44:30.301Z,14.73
2023-02-27T08:47:17.168Z,15.63
2023-02-27T08:49:50.285Z,15.13
2023-02-27T08:52:37.170Z,13.52
2023-02-27T08:55:10.307Z,13.40
2023-02-27T08:57:57.172Z,17.00
2023-02-27T09:00:32.429Z,13.32
2023-02-27T09:03:19.169Z,10.40
2023-02-27T09:05:54.291Z,14.05
2023-02-27T09:08:41.181Z,17.10
2023-02-27T09:11:21.175Z,15.10
2023-02-27T09:14:08.197Z,13.55
2023-02-27T09:16:48.301Z,14.40
2023-02-27T09:19:42.213Z,14.40
2023-02-27T09:22:29.182Z,12.82
2023-02-27T09:25:02.340Z,12.30
2023-02-27T09:27:51.208Z,13.07
2023-02-27T09:30:24.346Z,13.18
2023-02-27T09:33:11.172Z,12.68
2023-02-27T09:35:44.322Z,12.25
2023-02-27T09:38:31.172Z,13.63
2023-02-27T09:41:04.288Z,10.82
2023-02-27T09:43:54.196Z,11.85
2023-02-27T09:46:30.305Z,12.27
2023-02-27T09:49:22.195Z,13.25
2023-02-27T09:51:58.282Z,12.50
2023-02-27T09:54:45.177Z,12.57
2023-02-27T09:57:25.804Z,14.60
2023-02-27T10:00:25.190Z,15.93
2023-02-27T10:03:40.232Z,13.38
2023-02-27T10:06:55.201Z,14.23
2023-02-27T10:09:58.201Z,13.75
2023-02-27T10:12:56.197Z,14.88
2023-02-27T10:16:00.244Z,15.32
2023-02-27T10:19:04.213Z,13.68
2023-02-27T10:22:01.201Z,13.50
2023-02-27T10:24:54.260Z,14.63
2023-02-27T10:27:36.197Z,15.50
2023-02-27T10:30:36.411Z,16.02
2023-02-27T10:33:34.234Z,16.02
2023-02-27T10:36:32.413Z,15.15
2023-02-27T10:39:24.274Z,15.05
2023-02-27T10:41:58.320Z,12.70
2023-02-27T10:44:45.195Z,14.65
2023-02-27T10:47:31.213Z,14.05
2023-02-27T10:50:39.205Z,14.82
2023-02-27T10:53:32.205Z,15.25
2023-02-27T10:56:12.349Z,14.05
2023-02-27T10:59:16.337Z,13.75
2023-02-27T11:05:15.185Z,14.77
2023-02-27T11:08:23.212Z,13.35
2023-02-27T11:11:18.276Z,14.95
2023-02-27T11:14:31.211Z,15.23
2023-02-27T11:17:09.393Z,16.08
2023-02-27T11:19:56.252Z,15.75
2023-02-27T11:22:39.209Z,13.75
2023-02-27T11:25:31.200Z,15.80
2023-02-27T11:28:41.214Z,18.08
2023-02-27T11:31:37.233Z,19.02
2023-02-27T11:34:35.220Z,16.58
2023-02-27T11:37:33.375Z,18.38
2023-02-27T11:40:22.228Z,18.83
2023-02-27T11:43:30.260Z,17.80
2023-02-27T11:46:46.311Z,16.80
2023-02-27T11:49:35.219Z,16.58
2023-02-27T11:52:37.192Z,18.67
2023-02-27T11:55:29.227Z,16.15
2023-02-27T11:58:30.266Z,16.95
2023-02-27T12:01:34.292Z,14.00
2023-02-27T12:04:24.332Z,18.60
2023-02-27T12:07:36.257Z,18.70
2023-02-27T12:10:32.225Z,17.95
2023-02-27T12:13:33.342Z,17.30
2023-02-27T12:16:33.298Z,15.98
2023-02-27T12:19:44.348Z,18.13
2023-02-27T12:22:40.266Z,17.55
2023-02-27T12:25:29.432Z,17.13
2023-02-27T12:28:42.221Z,16.42
2023-02-27T12:31:33.231Z,18.77
2023-02-27T12:35:02.260Z,16.20
2023-02-27T12:37:49.229Z,17.58
2023-02-27T12:40:24.357Z,15.80
2023-02-27T12:43:29.310Z,14.52
2023-02-27T12:46:34.254Z,13.40
2023-02-27T12:49:49.209Z,13.82
2023-02-27T12:52:56.228Z,18.10
2023-02-27T12:55:35.402Z,17.23
2023-02-27T12:58:31.281Z,17.77
2023-02-27T13:01:50.349Z,13.27
2023-02-27T13:05:04.318Z,15.85
2023-02-27T13:08:16.272Z,16.08
2023-02-27T13:11:21.290Z,16.38
2023-02-27T13:13:59.366Z,15.88
2023-02-27T13:16:49.387Z,13.80
2023-02-27T13:19:37.413Z,14.02
2023-02-27T13:22:40.241Z,12.80
2023-02-27T13:25:20.392Z,11.95
2023-02-27T13:28:11.258Z,12.55
2023-02-27T13:31:14.319Z,12.63
2023-02-27T13:34:18.275Z,13.25
2023-02-27T13:37:11.340Z,11.30
2023-02-27T13:39:51.948Z,12.15
2023-02-27T13:42:39.278Z,14.45
2023-02-27T13:45:51.501Z,13.30
2023-02-27T13:48:48.256Z,13.90
2023-02-27T13:51:50.304Z,11.45
2023-02-27T13:54:57.289Z,13.30
2023-02-27T13:57:46.266Z,14.38
2023-02-27T14:00:31.372Z,14.40
2023-02-27T14:03:28.270Z,12.50
2023-02-27T14:06:12.246Z,13.52
2023-02-27T14:09:14.873Z,12.18
2023-02-27T14:12:06.275Z,12.05
2023-02-27T14:14:52.253Z,11.82
2023-02-27T14:17:54.666Z,11.73
2023-02-27T14:20:46.270Z,11.52
2023-02-27T14:23:22.418Z,14.73
2023-02-27T14:26:22.480Z,14.27
2023-02-27T14:29:04.407Z,13.82
2023-02-27T14:31:52.341Z,11.55
2023-02-27T14:34:28.401Z,12.77
2023-02-27T14:37:23.283Z,12.75
2023-02-27T14:40:08.467Z,11.82
2023-02-27T14:43:08.277Z,11.98
2023-02-27T14:45:48.388Z,13.98
2023-02-27T14:48:44.277Z,13.30
2023-02-27T14:51:32.262Z,12.43
2023-02-27T14:54:32.399Z,12.75
2023-02-27T14:57:13.312Z,13.32
2023-02-27T14:59:56.269Z,13.38
2023-02-27T15:02:38.386Z,12.48
2023-02-27T15:05:31.797Z,13.80
2023-02-27T15:08:14.284Z,14.63
2023-02-27T15:11:10.280Z,10.55
2023-02-27T15:14:24.264Z,13.75
2023-02-27T15:17:23.283Z,13.50
2023-02-27T15:20:06.382Z,12.23
2023-02-27T15:22:53.334Z,13.60
2023-02-27T15:25:42.386Z,13.45
2023-02-27T15:28:33.283Z,13.90
2023-02-27T15:31:13.407Z,13.40
2023-02-27T15:34:07.269Z,13.70
2023-02-27T15:37:04.337Z,12.98
2023-02-27T15:39:47.001Z,14.13
2023-02-27T15:42:38.303Z,14.48
2023-02-27T15:45:13.386Z,15.52
2023-02-27T15:48:00.332Z,12.70
2023-02-27T15:50:44.392Z,13.40
2023-02-27T15:53:36.350Z,13.00
2023-02-27T15:56:18.403Z,15.45
2023-02-27T15:59:07.338Z,16.58
2023-02-27T16:01:48.350Z,15.75
2023-02-27T16:04:42.283Z,14.82
2023-02-27T16:07:39.338Z,13.93
2023-02-27T16:10:31.331Z,14.27
2023-02-27T16:13:04.368Z,13.40
2023-02-27T16:15:51.354Z,12.88
2023-02-27T16:18:24.384Z,13.32
2023-02-27T16:21:17.310Z,12.13
2023-02-27T16:23:52.428Z,13.10
2023-02-27T16:26:43.312Z,14.15
2023-02-27T16:29:26.445Z,13.55
2023-02-27T16:32:31.351Z,12.68
2023-02-27T16:35:18.303Z,12.88
2023-02-27T16:38:15.329Z,17.02
2023-02-27T16:41:02.390Z,12.05
2023-02-27T16:43:35.464Z,12.82
2023-02-27T16:46:28.628Z,11.80
2023-02-27T16:49:17.861Z,11.82
2023-02-27T16:52:05.297Z,11.65
2023-02-27T16:54:38.429Z,14.48
2023-02-27T16:57:25.298Z,12.98
2023-02-27T17:00:05.312Z,12.98
2023-02-27T17:02:53.299Z,12.82
2023-02-27T17:05:26.543Z,12.07
2023-02-27T17:08:13.359Z,11.43
2023-02-27T17:10:46.413Z,10.95
2023-02-27T17:13:33.447Z,12.88
2023-02-27T17:16:06.432Z,13.98
2023-02-27T17:18:53.343Z,12.82
2023-02-27T17:21:27.548Z,12.77
2023-02-27T17:24:14.326Z,13.23
2023-02-27T17:26:54.336Z,12.80
2023-02-27T17:29:44.324Z,14.15
2023-02-27T17:32:24.375Z,13.25
2023-02-27T17:35:18.326Z,13.10
2023-02-27T17:38:07.480Z,14.57
2023-02-27T17:40:43.531Z,14.05
2023-02-27T17:43:30.341Z,14.80
2023-02-27T17:46:03.473Z,14.45
2023-02-27T17:48:50.343Z,13.13
2023-02-27T17:51:31.355Z,14.98
2023-02-27T17:54:25.351Z,14.70
2023-02-27T17:57:13.334Z,13.18
2023-02-27T17:59:53.336Z,15.73
2023-02-27T18:02:40.375Z,14.50
2023-02-27T18:05:13.546Z,14.63
2023-02-27T18:08:00.345Z,15.13
2023-02-27T18:10:40.346Z,13.82
2023-02-27T18:13:34.450Z,15.63
2023-02-27T18:16:21.342Z,14.82
2023-02-27T18:18:55.463Z,15.25
2023-02-27T18:21:42.403Z,14.02
2023-02-27T18:24:23.363Z,14.13
2023-02-27T18:27:18.345Z,15.98
2023-02-27T18:30:12.383Z,15.18
2023-02-27T18:33:10.332Z,15.48
2023-02-27T18:35:57.430Z,14.13
2023-02-27T18:38:37.365Z,16.02
2023-02-27T18:41:31.343Z,15.23
2023-02-27T18:44:18.353Z,16.33
2023-02-27T18:46:58.410Z,15.13
2023-02-27T18:49:52.372Z,15.35
2023-02-27T18:52:39.355Z,15.88
2023-02-27T18:55:13.458Z,14.75
2023-02-27T18:58:00.354Z,15.93
2023-02-27T19:00:33.486Z,16.25
2023-02-27T19:03:20.414Z,15.32
2023-02-27T19:06:00.356Z,14.23
2023-02-27T19:08:54.342Z,14.40
2023-02-27T19:11:48.392Z,16.88
2023-02-27T19:14:35.401Z,13.93
2023-02-27T19:17:15.351Z,15.57
2023-02-27T19:20:09.408Z,17.48
2023-02-27T19:22:56.390Z,17.42
2023-02-27T19:25:29.970Z,16.52
2023-02-27T19:28:18.364Z,16.30
2023-02-27T19:30:52.651Z,15.93
2023-02-27T19:33:39.356Z,17.38
2023-02-27T19:36:17.799Z,16.27
2023-02-27T19:39:05.354Z,17.85
2023-02-27T19:41:38.487Z,16.23
2023-02-27T19:44:25.366Z,16.25
2023-02-27T19:47:05.482Z,15.57
2023-02-27T19:49:52.378Z,16.30
2023-02-27T19:52:25.464Z,21.95
2023-02-27T19:55:13.400Z,20.73
2023-02-27T19:57:46.491Z,20.73
2023-02-27T20:00:33.386Z,24.05
2023-02-27T20:03:06.472Z,18.02
2023-02-27T20:05:53.373Z,17.77
2023-02-27T20:08:26.545Z,22.60
2023-02-27T20:11:13.388Z,22.17
2023-02-27T20:13:46.559Z,21.02
2023-02-27T20:16:36.391Z,22.10
2023-02-27T20:19:13.898Z,20.40
2023-02-27T20:22:03.402Z,21.40
2023-02-27T20:24:36.481Z,20.73
2023-02-27T20:27:23.398Z,21.77
2023-02-27T20:30:08.401Z,22.67
2023-02-27T20:33:03.423Z,19.77
2023-02-27T20:35:57.398Z,23.45
2023-02-27T20:38:45.398Z,21.50
2023-02-27T20:41:29.962Z,23.10
2023-02-27T20:44:18.391Z,21.80
2023-02-27T20:46:58.432Z,21.05
2023-02-27T20:49:52.385Z,19.30
2023-02-27T20:52:39.406Z,24.52
2023-02-27T20:55:13.509Z,22.38
2023-02-27T20:58:00.407Z,20.95
2023-02-27T21:00:33.560Z,20.55
2023-02-27T21:03:20.412Z,19.83
2023-02-27T21:05:54.489Z,18.15
2023-02-27T21:08:43.409Z,20.55
2023-02-27T21:11:37.400Z,19.42
2023-02-27T21:14:24.429Z,21.52
2023-02-27T21:16:57.491Z,16.95
2023-02-27T21:19:46.420Z,17.95
2023-02-27T21:22:19.503Z,20.35
2023-02-27T21:25:06.428Z,21.15
2023-02-27T21:27:46.476Z,19.52
2023-02-27T21:30:40.406Z,17.27
2023-02-27T21:33:35.448Z,16.77
2023-02-27T21:36:29.427Z,20.80
2023-02-27T21:39:21.429Z,18.42
2023-02-27T21:42:02.469Z,19.27
2023-02-27T21:44:56.407Z,20.25
2023-02-27T21:47:43.416Z,19.13
2023-02-27T21:50:21.764Z,19.92
2023-02-27T21:53:08.444Z,19.90
2023-02-27T21:55:41.539Z,20.15
2023-02-27T21:58:29.481Z,19.55
2023-02-27T22:01:03.317Z,19.80
2023-02-27T22:03:51.441Z,19.10
2023-02-27T22:06:33.415Z,19.35
2023-02-27T22:09:27.454Z,19.42
2023-02-27T22:12:16.142Z,20.35
2023-02-27T22:14:49.816Z,20.55
2023-02-27T22:17:36.427Z,20.40
2023-02-27T22:20:16.433Z,20.45
2023-02-27T22:23:11.417Z,18.45
2023-02-27T22:26:08.466Z,18.42
2023-02-27T22:28:42.628Z,19.23
2023-02-27T22:31:38.512Z,19.02
2023-02-27T22:34:25.429Z,18.40
2023-02-27T22:37:05.413Z,18.33
2023-02-27T22:40:01.582Z,18.27
2023-02-27T22:42:58.424Z,17.05
2023-02-27T22:45:38.437Z,18.10
2023-02-27T22:48:32.424Z,18.48
2023-02-27T22:51:28.989Z,19.27
2023-02-27T22:54:23.444Z,18.38
2023-02-27T22:57:12.483Z,19.90
2023-02-27T22:59:52.449Z,19.90
2023-02-27T23:02:46.446Z,22.30
2023-02-27T23:05:33.463Z,22.70
2023-02-27T23:08:06.549Z,18.85
2023-02-27T23:10:53.457Z,18.27
2023-02-27T23:13:33.566Z,19.48
2023-02-27T23:16:27.680Z,19.77
2023-02-27T23:19:14.459Z,20.45
2023-02-27T23:21:47.612Z,19.63
2023-02-27T23:24:34.440Z,20.13
2023-02-27T23:27:25.074Z,20.17
2023-02-27T23:30:13.492Z,19.48
2023-02-27T23:32:46.652Z,19.52
2023-02-27T23:35:34.495Z,19.15
2023-02-27T23:38:07.707Z,18.13
2023-02-27T23:40:54.432Z,17.80
2023-02-27T23:43:35.441Z,15.85
2023-02-27T23:46:29.430Z,17.00
2023-02-27T23:49:17.446Z,17.13
2023-02-27T23:51:57.426Z,15.68
2023-02-27T23:54:44.418Z,19.10
2023-02-27T23:57:24.448Z,17.90
